createdAt,value
2019-02-09T00:00:36.316Z,101023.10
2019-02-09T00:03:08.469Z,101017.00
2019-02-09T00:05:39.377Z,101002.14
2019-02-09T00:08:11.215Z,101006.86
2019-02-09T00:10:42.121Z,101006.03
2019-02-09T00:13:13.052Z,100995.20
2019-02-09T00:15:44.255Z,100999.92
2019-02-09T00:18:15.249Z,100988.86
2019-02-09T00:20:46.162Z,100985.41
2019-02-09T00:23:17.099Z,100985.61
2019-02-09T00:25:48.010Z,100969.69
2019-02-09T00:28:18.944Z,100962.20
2019-02-09T00:30:49.843Z,100969.16
2019-02-09T00:33:20.800Z,100956.85
2019-02-09T00:35:51.708Z,100950.23
2019-02-09T00:38:22.650Z,100945.05
2019-02-09T00:40:53.562Z,100947.50
2019-02-09T00:43:24.499Z,100951.77
2019-02-09T00:45:55.395Z,100938.59
2019-02-09T00:48:26.352Z,100944.70
2019-02-09T00:50:57.259Z,100942.02
2019-02-09T00:53:28.231Z,100928.29
2019-02-09T00:55:59.138Z,100929.49
2019-02-09T00:58:30.079Z,100924.94
2019-02-09T01:01:01.787Z,100926.62
2019-02-09T01:03:32.750Z,100921.79
2019-02-09T01:06:03.664Z,100922.06
2019-02-09T01:08:34.596Z,100919.52
2019-02-09T01:11:05.571Z,100912.70
2019-02-09T01:13:36.494Z,100901.34
2019-02-09T01:16:07.413Z,100888.77
2019-02-09T01:18:38.352Z,100889.70
2019-02-09T01:21:09.260Z,100883.52
2019-02-09T01:23:40.224Z,100881.05
2019-02-09T01:26:14.570Z,100877.72
2019-02-09T01:28:45.513Z,100870.97
2019-02-09T01:31:16.395Z,100859.69
2019-02-09T01:33:47.347Z,100863.74
2019-02-09T01:36:18.256Z,100847.75
2019-02-09T01:38:49.764Z,100843.70
2019-02-09T01:41:20.680Z,100840.63
2019-02-09T01:43:51.618Z,100841.41
2019-02-09T01:46:22.512Z,100837.33
2019-02-09T01:48:53.481Z,100833.33
2019-02-09T01:51:24.385Z,100837.07
2019-02-09T01:53:55.312Z,100828.60
2019-02-09T01:56:26.200Z,100813.54
2019-02-09T01:58:57.138Z,100817.22
2019-02-09T02:01:28.802Z,100807.58
2019-02-09T02:03:59.749Z,100802.15
2019-02-09T02:06:30.723Z,100797.02
2019-02-09T02:09:01.737Z,100790.58
2019-02-09T02:11:32.638Z,100781.21
2019-02-09T02:14:03.559Z,100770.20
2019-02-09T02:16:34.470Z,100769.34
2019-02-09T02:19:05.423Z,100765.78
2019-02-09T02:21:36.305Z,100762.14
2019-02-09T02:24:07.250Z,100763.30
2019-02-09T02:26:38.136Z,100761.62
2019-02-09T02:29:09.060Z,100761.09
2019-02-09T02:31:39.973Z,100754.12
2019-02-09T02:34:10.943Z,100750.48
2019-02-09T02:36:41.843Z,100740.32
2019-02-09T02:39:12.778Z,100744.39
2019-02-09T02:41:43.674Z,100740.36
2019-02-09T02:44:14.610Z,100734.55
2019-02-09T02:46:45.505Z,100728.77
2019-02-09T02:49:16.462Z,100730.86
2019-02-09T02:51:47.367Z,100731.72
2019-02-09T02:54:18.297Z,100727.79
2019-02-09T02:56:49.191Z,100715.25
2019-02-09T02:59:20.156Z,100717.88
2019-02-09T03:01:51.850Z,100715.91
2019-02-09T03:04:22.818Z,100721.23
2019-02-09T03:06:53.711Z,100719.52
2019-02-09T03:09:24.723Z,100717.17
2019-02-09T03:11:55.635Z,100715.70
2019-02-09T03:14:26.633Z,100718.46
2019-02-09T03:16:57.529Z,100711.66
2019-02-09T03:19:28.505Z,100718.00
2019-02-09T03:21:59.408Z,100712.43
2019-02-09T03:24:30.337Z,100708.13
2019-02-09T03:27:01.235Z,100703.58
2019-02-09T03:29:32.199Z,100698.00
2019-02-09T03:32:03.105Z,100694.75
2019-02-09T03:34:34.061Z,100699.97
2019-02-09T03:37:04.958Z,100702.88
2019-02-09T03:39:35.894Z,100697.17
2019-02-09T03:42:06.897Z,100694.87
2019-02-09T03:44:37.840Z,100693.44
2019-02-09T03:47:08.748Z,100700.70
2019-02-09T03:49:39.897Z,100696.58
2019-02-09T03:52:10.809Z,100695.92
2019-02-09T03:54:41.733Z,100694.34
2019-02-09T03:57:12.640Z,100689.44
2019-02-09T03:59:43.572Z,100674.36
2019-02-09T04:02:14.477Z,100671.66
2019-02-09T04:04:45.444Z,100674.73
2019-02-09T04:07:16.422Z,100665.52
2019-02-09T04:09:47.348Z,100656.12
2019-02-09T04:12:18.248Z,100665.11
2019-02-09T04:14:49.195Z,100651.75
2019-02-09T04:17:20.097Z,100638.11
2019-02-09T04:19:51.028Z,100637.98
2019-02-09T04:22:21.941Z,100635.61
2019-02-09T04:24:52.877Z,100622.83
2019-02-09T04:27:24.289Z,100613.41
2019-02-09T04:29:55.227Z,100610.13
2019-02-09T04:32:26.135Z,100610.33
2019-02-09T04:34:57.084Z,100602.99
2019-02-09T04:37:27.993Z,100596.69
2019-02-09T04:39:58.910Z,100593.66
2019-02-09T04:42:29.815Z,100588.95
2019-02-09T04:45:00.824Z,100581.37
2019-02-09T04:47:31.729Z,100590.88
2019-02-09T04:50:02.793Z,100579.52
2019-02-09T04:52:33.694Z,100580.23
2019-02-09T04:55:06.877Z,100569.90
2019-02-09T04:57:37.773Z,100569.04
2019-02-09T05:00:17.366Z,100566.95
2019-02-09T05:02:48.364Z,100566.88
2019-02-09T05:05:19.401Z,100565.11
2019-02-09T05:07:50.412Z,100541.31
2019-02-09T05:10:22.949Z,100542.70
2019-02-09T05:12:53.845Z,100548.06
2019-02-09T05:15:24.777Z,100542.83
2019-02-09T05:17:55.699Z,100532.51
2019-02-09T05:20:26.663Z,100530.62
2019-02-09T05:22:57.570Z,100527.88
2019-02-09T05:25:28.643Z,100522.10
2019-02-09T05:27:59.548Z,100526.81
2019-02-09T05:30:31.073Z,100518.41
2019-02-09T05:33:01.985Z,100517.38
2019-02-09T05:35:32.936Z,100508.58
2019-02-09T05:38:03.833Z,100511.15
2019-02-09T05:40:35.845Z,100508.98
2019-02-09T05:43:06.746Z,100506.48
2019-02-09T05:45:37.699Z,100495.53
2019-02-09T05:48:08.610Z,100493.59
2019-02-09T05:50:39.545Z,100488.05
2019-02-09T05:53:10.512Z,100481.91
2019-02-09T05:55:41.445Z,100483.62
2019-02-09T05:58:12.335Z,100474.67
2019-02-09T06:00:45.038Z,100459.62
2019-02-09T06:03:16.002Z,100464.66
2019-02-09T06:05:46.955Z,100460.89
2019-02-09T06:08:17.852Z,100452.17
2019-02-09T06:10:48.767Z,100452.81
2019-02-09T06:13:19.667Z,100442.95
2019-02-09T06:15:50.592Z,100443.35
2019-02-09T06:18:21.490Z,100445.58
2019-02-09T06:20:52.427Z,100435.62
2019-02-09T06:23:23.319Z,100438.42
2019-02-09T06:25:54.266Z,100438.42
2019-02-09T06:28:25.145Z,100440.11
2019-02-09T06:30:56.067Z,100434.63
2019-02-09T06:33:26.974Z,100432.64
2019-02-09T06:35:57.944Z,100432.23
2019-02-09T06:38:28.838Z,100426.84
2019-02-09T06:40:59.763Z,100426.70
2019-02-09T06:43:30.666Z,100424.98
2019-02-09T06:46:01.583Z,100421.23
2019-02-09T06:48:32.474Z,100419.11
2019-02-09T06:51:04.032Z,100427.56
2019-02-09T06:53:34.947Z,100425.39
2019-02-09T06:56:06.066Z,100428.02
2019-02-09T06:58:36.979Z,100426.98
2019-02-09T07:01:07.966Z,100429.38
2019-02-09T07:03:38.869Z,100435.27
2019-02-09T07:06:09.815Z,100437.11
2019-02-09T07:08:40.705Z,100420.83
2019-02-09T07:11:11.639Z,100426.62
2019-02-09T07:13:42.540Z,100429.52
2019-02-09T07:16:13.461Z,100432.63
2019-02-09T07:18:44.361Z,100415.63
2019-02-09T07:21:15.315Z,100421.42
2019-02-09T07:23:46.219Z,100418.42
2019-02-09T07:26:17.152Z,100417.48
2019-02-09T07:28:48.050Z,100416.41
2019-02-09T07:31:18.979Z,100412.64
2019-02-09T07:33:49.873Z,100412.59
2019-02-09T07:36:20.863Z,100410.38
2019-02-09T07:38:51.759Z,100399.12
2019-02-09T07:41:22.691Z,100400.20
2019-02-09T07:43:53.596Z,100387.85
2019-02-09T07:46:24.543Z,100384.55
2019-02-09T07:48:55.452Z,100381.06
2019-02-09T07:51:26.425Z,100383.83
2019-02-09T07:53:57.337Z,100378.44
2019-02-09T07:56:28.269Z,100377.45
2019-02-09T07:58:59.176Z,100374.19
2019-02-09T08:01:30.101Z,100381.98
2019-02-09T08:04:01.013Z,100381.61
2019-02-09T08:06:31.977Z,100369.26
2019-02-09T08:09:04.749Z,100369.48
2019-02-09T08:11:35.685Z,100363.92
2019-02-09T08:14:06.579Z,100359.91
2019-02-09T08:16:37.516Z,100348.50
2019-02-09T08:19:08.425Z,100359.39
2019-02-09T08:21:39.416Z,100343.65
2019-02-09T08:24:10.347Z,100345.64
2019-02-09T08:26:41.287Z,100343.78
2019-02-09T08:29:12.197Z,100341.87
2019-02-09T08:31:43.122Z,100341.42
2019-02-09T08:34:14.023Z,100351.42
2019-02-09T08:36:44.990Z,100335.45
2019-02-09T08:39:15.890Z,100336.45
2019-02-09T08:41:46.823Z,100335.94
2019-02-09T08:44:17.808Z,100336.30
2019-02-09T08:46:48.736Z,100321.87
2019-02-09T08:49:19.642Z,100308.81
2019-02-09T08:51:50.592Z,100309.60
2019-02-09T08:54:21.486Z,100297.88
2019-02-09T08:56:52.424Z,100298.80
2019-02-09T08:59:23.328Z,100289.67
2019-02-09T09:01:54.268Z,100295.78
2019-02-09T09:04:26.102Z,100292.55
2019-02-09T09:06:57.167Z,100296.45
2019-02-09T09:09:28.087Z,100292.77
2019-02-09T09:11:59.022Z,100294.31
2019-02-09T09:14:29.933Z,100294.86
2019-02-09T09:17:00.871Z,100283.05
2019-02-09T09:19:31.771Z,100288.83
2019-02-09T09:22:02.817Z,100276.55
2019-02-09T09:24:33.721Z,100287.38
2019-02-09T09:27:04.771Z,100290.38
2019-02-09T09:29:35.678Z,100289.46
2019-02-09T09:32:06.618Z,100286.31
2019-02-09T09:34:37.522Z,100281.52
2019-02-09T09:37:08.477Z,100273.46
2019-02-09T09:39:39.381Z,100280.73
2019-02-09T09:42:10.320Z,100274.08
2019-02-09T09:44:41.246Z,100273.46
2019-02-09T09:47:12.290Z,100275.41
2019-02-09T09:49:43.184Z,100264.22
2019-02-09T09:52:14.142Z,100258.73
2019-02-09T09:54:45.041Z,100256.11
2019-02-09T09:57:15.977Z,100263.28
2019-02-09T09:59:46.896Z,100268.13
2019-02-09T10:02:17.842Z,100267.89
2019-02-09T10:04:48.740Z,100267.59
2019-02-09T10:07:19.687Z,100269.66
2019-02-09T10:09:50.603Z,100256.69
2019-02-09T10:12:21.539Z,100258.22
2019-02-09T10:14:52.432Z,100262.16
2019-02-09T10:17:23.364Z,100259.41
2019-02-09T10:19:54.262Z,100261.02
2019-02-09T10:22:25.224Z,100262.48
2019-02-09T10:24:56.144Z,100255.47
2019-02-09T10:27:27.073Z,100256.06
2019-02-09T10:29:57.986Z,100245.20
2019-02-09T10:32:28.844Z,100237.88
2019-02-09T10:34:59.836Z,100229.32
2019-02-09T10:37:30.836Z,100229.04
2019-02-09T10:40:01.782Z,100225.91
2019-02-09T10:42:32.753Z,100229.69
2019-02-09T10:45:05.476Z,100232.39
2019-02-09T10:47:36.449Z,100234.63
2019-02-09T10:50:16.320Z,100226.00
2019-02-09T10:52:47.267Z,100225.25
2019-02-09T10:55:18.173Z,100212.34
2019-02-09T10:57:50.601Z,100218.19
2019-02-09T11:00:38.830Z,100216.02
2019-02-09T11:03:09.956Z,100224.41
2019-02-09T11:05:41.042Z,100220.48
2019-02-09T11:08:12.045Z,100214.84
2019-02-09T11:10:42.951Z,100214.66
2019-02-09T11:13:13.873Z,100216.55
2019-02-09T11:15:44.783Z,100206.92
2019-02-09T11:18:15.723Z,100215.03
2019-02-09T11:20:46.630Z,100210.61
2019-02-09T11:23:17.584Z,100207.42
2019-02-09T11:25:48.486Z,100214.09
2019-02-09T11:28:19.422Z,100211.80
2019-02-09T11:30:50.329Z,100216.84
2019-02-09T11:33:22.040Z,100220.59
2019-02-09T11:35:52.954Z,100228.22
2019-02-09T11:38:23.963Z,100227.95
2019-02-09T11:40:54.850Z,100226.86
2019-02-09T11:43:25.848Z,100210.09
2019-02-09T11:45:56.759Z,100218.04
2019-02-09T11:48:28.501Z,100216.82
2019-02-09T11:50:59.407Z,100208.64
2019-02-09T11:53:30.365Z,100215.06
2019-02-09T11:56:01.333Z,100220.70
2019-02-09T11:58:32.277Z,100213.53
2019-02-09T12:01:03.256Z,100222.32
2019-02-09T12:03:34.180Z,100212.31
2019-02-09T12:06:06.060Z,100198.79
2019-02-09T12:08:37.022Z,100205.05
2019-02-09T12:11:07.922Z,100194.45
2019-02-09T12:13:38.942Z,100191.67
2019-02-09T12:16:09.844Z,100202.94
2019-02-09T12:18:40.780Z,100196.77
2019-02-09T12:21:11.681Z,100190.51
2019-02-09T12:23:42.851Z,100192.73
2019-02-09T12:26:13.754Z,100194.05
2019-02-09T12:28:44.698Z,100194.81
2019-02-09T12:31:15.602Z,100190.45
2019-02-09T12:33:46.541Z,100205.16
2019-02-09T12:36:17.451Z,100208.14
2019-02-09T12:38:48.415Z,100208.54
2019-02-09T12:41:19.325Z,100210.52
2019-02-09T12:43:50.268Z,100212.88
2019-02-09T12:46:21.227Z,100196.83
2019-02-09T12:48:52.150Z,100218.59
2019-02-09T12:51:23.066Z,100213.04
2019-02-09T12:53:54.015Z,100215.85
2019-02-09T12:56:24.913Z,100218.17
2019-02-09T12:58:55.943Z,100223.97
2019-02-09T13:01:27.018Z,100221.23
2019-02-09T13:03:57.947Z,100226.02
2019-02-09T13:06:29.688Z,100233.03
2019-02-09T13:09:00.637Z,100227.61
2019-02-09T13:11:31.543Z,100230.72
2019-02-09T13:14:02.479Z,100236.33
2019-02-09T13:16:33.387Z,100229.80
2019-02-09T13:19:04.637Z,100234.52
2019-02-09T13:21:35.551Z,100229.20
2019-02-09T13:24:06.627Z,100232.91
2019-02-09T13:26:37.562Z,100226.28
2019-02-09T13:29:08.496Z,100230.84
2019-02-09T13:31:39.398Z,100235.53
2019-02-09T13:34:10.344Z,100232.91
2019-02-09T13:36:41.260Z,100242.64
2019-02-09T13:39:12.208Z,100239.23
2019-02-09T13:41:43.114Z,100236.77
2019-02-09T13:44:14.118Z,100238.83
2019-02-09T13:46:45.033Z,100238.98
2019-02-09T13:49:15.956Z,100246.15
2019-02-09T13:51:46.868Z,100238.44
2019-02-09T13:54:17.806Z,100238.22
2019-02-09T13:56:48.780Z,100229.65
2019-02-09T13:59:19.728Z,100224.55
2019-02-09T14:01:52.403Z,100223.94
2019-02-09T14:04:26.989Z,100232.51
2019-02-09T14:06:57.880Z,100232.91
2019-02-09T14:09:29.126Z,100229.97
2019-02-09T14:12:00.121Z,100230.91
2019-02-09T14:14:31.060Z,100235.70
2019-02-09T14:17:01.963Z,100231.20
2019-02-09T14:19:32.894Z,100235.61
2019-02-09T14:22:03.905Z,100238.02
2019-02-09T14:24:34.887Z,100247.56
2019-02-09T14:27:05.774Z,100248.88
2019-02-09T14:29:36.718Z,100248.88
2019-02-09T14:32:07.693Z,100241.16
2019-02-09T14:34:38.615Z,100246.25
2019-02-09T14:37:09.512Z,100248.94
2019-02-09T14:39:40.451Z,100246.50
2019-02-09T14:42:11.353Z,100240.92
2019-02-09T14:44:42.270Z,100242.14
2019-02-09T14:47:13.186Z,100244.41
2019-02-09T14:49:44.118Z,100241.63
2019-02-09T14:52:15.028Z,100245.94
2019-02-09T14:54:46.011Z,100250.80
2019-02-09T14:57:16.926Z,100251.95
2019-02-09T14:59:47.994Z,100244.53
2019-02-09T15:02:18.836Z,100239.90
2019-02-09T15:04:49.770Z,100245.26
2019-02-09T15:07:20.680Z,100255.50
2019-02-09T15:09:51.637Z,100252.47
2019-02-09T15:12:22.540Z,100267.00
2019-02-09T15:14:53.553Z,100274.94
2019-02-09T15:17:24.465Z,100280.64
2019-02-09T15:19:55.387Z,100282.13
2019-02-09T15:22:26.291Z,100278.56
2019-02-09T15:24:57.256Z,100285.44
2019-02-09T15:27:28.147Z,100276.70
2019-02-09T15:29:59.090Z,100280.89
2019-02-09T15:32:30.433Z,100278.33
2019-02-09T15:35:01.380Z,100284.34
2019-02-09T15:37:32.286Z,100285.81
2019-02-09T15:40:03.434Z,100284.28
2019-02-09T15:42:34.334Z,100278.91
2019-02-09T15:45:08.418Z,100285.48
2019-02-09T15:47:39.330Z,100293.75
2019-02-09T15:50:15.005Z,100293.59
2019-02-09T15:52:46.430Z,100299.45
2019-02-09T15:55:22.032Z,100306.73
2019-02-09T15:57:52.949Z,100307.86
2019-02-09T16:00:28.972Z,100305.63
2019-02-09T16:03:00.775Z,100302.91
2019-02-09T16:05:31.704Z,100310.24
2019-02-09T16:08:02.938Z,100305.30
2019-02-09T16:10:33.954Z,100300.29
2019-02-09T16:13:07.765Z,100305.30
2019-02-09T16:15:38.701Z,100296.96
2019-02-09T16:18:09.601Z,100306.83
2019-02-09T16:20:40.554Z,100298.95
2019-02-09T16:23:11.451Z,100299.80
2019-02-09T16:25:42.412Z,100306.22
2019-02-09T16:28:13.420Z,100306.73
2019-02-09T16:30:44.354Z,100311.62
2019-02-09T16:33:15.256Z,100312.66
2019-02-09T16:35:46.198Z,100312.59
2019-02-09T16:38:17.098Z,100316.59
2019-02-09T16:40:48.078Z,100307.09
2019-02-09T16:43:19.050Z,100315.92
2019-02-09T16:45:49.987Z,100327.03
2019-02-09T16:48:20.892Z,100320.07
2019-02-09T16:50:51.813Z,100313.81
2019-02-09T16:53:22.718Z,100314.42
2019-02-09T16:55:53.685Z,100319.59
2019-02-09T16:58:24.593Z,100324.84
2019-02-09T17:00:55.721Z,100326.46
2019-02-09T17:03:26.621Z,100316.66
2019-02-09T17:05:57.557Z,100323.59
2019-02-09T17:08:28.458Z,100314.09
2019-02-09T17:10:59.408Z,100315.71
2019-02-09T17:13:30.312Z,100319.44
2019-02-09T17:16:01.315Z,100321.59
2019-02-09T17:18:32.220Z,100320.29
2019-02-09T17:21:03.156Z,100317.99
2019-02-09T17:23:34.065Z,100305.16
2019-02-09T17:26:05.402Z,100312.73
2019-02-09T17:28:36.299Z,100320.33
2019-02-09T17:31:07.343Z,100329.66
2019-02-09T17:33:38.255Z,100338.09
2019-02-09T17:36:09.190Z,100327.42
2019-02-09T17:38:40.097Z,100328.06
2019-02-09T17:41:11.051Z,100325.34
2019-02-09T17:43:42.039Z,100338.56
2019-02-09T17:46:13.276Z,100331.59
2019-02-09T17:48:44.183Z,100340.02
2019-02-09T17:51:15.118Z,100333.75
2019-02-09T17:53:46.015Z,100332.69
2019-02-09T17:56:16.999Z,100331.92
2019-02-09T17:58:47.903Z,100330.75
2019-02-09T18:01:18.916Z,100332.98
2019-02-09T18:03:49.825Z,100327.19
2019-02-09T18:06:21.400Z,100333.92
2019-02-09T18:08:52.300Z,100334.47
2019-02-09T18:11:23.356Z,100333.75
2019-02-09T18:13:54.253Z,100332.66
2019-02-09T18:16:25.185Z,100334.83
2019-02-09T18:18:56.089Z,100330.36
2019-02-09T18:21:27.045Z,100325.50
2019-02-09T18:23:57.952Z,100321.48
2019-02-09T18:26:28.919Z,100324.43
2019-02-09T18:28:59.833Z,100328.81
2019-02-09T18:31:30.784Z,100327.59
2019-02-09T18:34:01.689Z,100328.59
2019-02-09T18:36:32.625Z,100322.95
2019-02-09T18:39:06.615Z,100324.40
2019-02-09T18:41:37.568Z,100326.66
2019-02-09T18:44:08.475Z,100324.40
2019-02-09T18:46:39.425Z,100317.79
2019-02-09T18:49:10.396Z,100312.77
2019-02-09T18:51:41.335Z,100315.40
2019-02-09T18:54:12.226Z,100310.69
2019-02-09T18:56:43.181Z,100313.83
2019-02-09T18:59:14.086Z,100308.58
2019-02-09T19:01:45.014Z,100307.45
2019-02-09T19:04:15.925Z,100307.45
2019-02-09T19:06:46.854Z,100314.77
2019-02-09T19:09:18.005Z,100312.69
2019-02-09T19:11:49.011Z,100303.73
2019-02-09T19:14:20.412Z,100308.98
2019-02-09T19:16:51.413Z,100312.45
2019-02-09T19:19:22.315Z,100309.30
2019-02-09T19:21:53.240Z,100308.38
2019-02-09T19:24:24.153Z,100305.22
2019-02-09T19:26:55.092Z,100301.11
2019-02-09T19:29:25.984Z,100306.58
2019-02-09T19:31:56.903Z,100299.73
2019-02-09T19:34:27.802Z,100304.58
2019-02-09T19:36:58.730Z,100296.17
2019-02-09T19:39:29.615Z,100305.30
2019-02-09T19:42:00.659Z,100310.85
2019-02-09T19:44:31.557Z,100304.89
2019-02-09T19:47:02.461Z,100306.66
2019-02-09T19:49:33.358Z,100300.50
2019-02-09T19:52:04.672Z,100301.81
2019-02-09T19:54:35.578Z,100308.66
2019-02-09T19:57:06.543Z,100297.41
2019-02-09T19:59:37.458Z,100304.22
2019-02-09T20:02:08.462Z,100301.73
2019-02-09T20:04:39.372Z,100305.95
2019-02-09T20:07:10.304Z,100291.70
2019-02-09T20:09:41.212Z,100298.63
2019-02-09T20:12:12.283Z,100306.27
2019-02-09T20:14:43.187Z,100310.61
2019-02-09T20:17:14.126Z,100299.72
2019-02-09T20:19:45.025Z,100284.89
2019-02-09T20:22:16.033Z,100299.32
2019-02-09T20:24:46.940Z,100307.19
2019-02-09T20:27:17.903Z,100296.70
2019-02-09T20:29:48.799Z,100297.02
2019-02-09T20:32:19.733Z,100300.32
2019-02-09T20:34:50.725Z,100292.17
2019-02-09T20:37:21.725Z,100300.80
2019-02-09T20:39:52.630Z,100312.06
2019-02-09T20:42:23.600Z,100303.48
2019-02-09T20:44:54.494Z,100308.98
2019-02-09T20:47:25.425Z,100308.50
2019-02-09T20:49:56.315Z,100311.20
2019-02-09T20:52:27.343Z,100303.66
2019-02-09T20:54:58.205Z,100299.95
2019-02-09T20:57:29.282Z,100309.38
2019-02-09T21:00:00.269Z,100313.45
2019-02-09T21:02:31.210Z,100309.30
2019-02-09T21:05:02.128Z,100324.72
2019-02-09T21:07:33.039Z,100309.38
2019-02-09T21:10:10.422Z,100309.92
2019-02-09T21:12:41.371Z,100308.66
2019-02-09T21:15:17.929Z,100316.02
2019-02-09T21:17:48.857Z,100314.40
2019-02-09T21:20:20.164Z,100308.15
2019-02-09T21:22:51.195Z,100302.42
2019-02-09T21:25:30.072Z,100314.70
2019-02-09T21:28:01.172Z,100306.13
2019-02-09T21:30:32.238Z,100316.02
2019-02-09T21:33:03.171Z,100311.91
2019-02-09T21:35:34.069Z,100314.30
2019-02-09T21:38:05.338Z,100305.98
2019-02-09T21:40:36.607Z,100314.45
2019-02-09T21:43:07.567Z,100311.46
2019-02-09T21:45:45.003Z,100311.92
2019-02-09T21:48:11.434Z,100329.82
2019-02-09T21:50:42.327Z,100313.00
2019-02-09T21:53:13.250Z,100310.59
2019-02-09T21:55:44.149Z,100298.09
2019-02-09T21:58:15.093Z,100303.57
2019-02-09T22:00:46.506Z,100302.51
2019-02-09T22:03:17.436Z,100301.64
2019-02-09T22:05:51.941Z,100309.36
2019-02-09T22:08:20.954Z,100305.64
2019-02-09T22:10:52.620Z,100309.58
2019-02-09T22:13:23.768Z,100306.17
2019-02-09T22:15:54.652Z,100312.73
2019-02-09T22:18:25.622Z,100308.80
2019-02-09T22:20:56.565Z,100317.45
2019-02-09T22:23:27.511Z,100322.84
2019-02-09T22:25:58.408Z,100315.44
2019-02-09T22:28:29.374Z,100334.58
2019-02-09T22:31:00.207Z,100336.83
2019-02-09T22:33:31.114Z,100328.16
2019-02-09T22:36:02.016Z,100328.69
2019-02-09T22:38:32.935Z,100332.32
2019-02-09T22:41:03.902Z,100333.88
2019-02-09T22:43:34.854Z,100334.42
2019-02-09T22:46:06.673Z,100341.81
2019-02-09T22:48:38.204Z,100351.50
2019-02-09T22:51:09.092Z,100343.98
2019-02-09T22:53:40.008Z,100351.56
2019-02-09T22:56:10.909Z,100341.97
2019-02-09T22:58:41.934Z,100345.36
2019-02-09T23:01:36.654Z,100351.56
2019-02-09T23:04:10.481Z,100351.50
2019-02-09T23:06:52.736Z,100349.70
2019-02-09T23:09:22.754Z,100347.23
2019-02-09T23:11:54.692Z,100355.87
2019-02-09T23:14:25.685Z,100353.19
2019-02-09T23:16:56.557Z,100358.73
2019-02-09T23:19:27.485Z,100357.73
2019-02-09T23:21:58.373Z,100350.25
2019-02-09T23:24:29.292Z,100361.30
2019-02-09T23:27:00.261Z,100364.39
2019-02-09T23:29:31.209Z,100360.84
2019-02-09T23:32:02.096Z,100372.87
2019-02-09T23:34:33.085Z,100363.44
2019-02-09T23:37:03.984Z,100366.63
2019-02-09T23:39:34.900Z,100373.70
2019-02-09T23:42:05.794Z,100374.50
2019-02-09T23:44:36.746Z,100367.08
2019-02-09T23:47:07.638Z,100379.45
2019-02-09T23:49:38.558Z,100375.63
2019-02-09T23:52:09.512Z,100387.78
2019-02-09T23:54:40.436Z,100377.06
2019-02-09T23:57:11.334Z,100386.47
2019-02-09T23:59:42.270Z,100391.02
